sensor_id;sensor_type;location;lat;lon;timestamp;temperature;humidity
52167;DHT22;38149;52.666;6.428;2022-08-30T00:06:15;18.80;99.90
52167;DHT22;38149;52.666;6.428;2022-08-30T00:08:42;18.30;99.90
52167;DHT22;38149;52.666;6.428;2022-08-30T00:13:42;18.20;99.90
52167;DHT22;38149;52.666;6.428;2022-08-30T00:16:09;18.30;99.90
52167;DHT22;38149;52.666;6.428;2022-08-30T00:33:25;18.10;99.90
52167;DHT22;38149;52.666;6.428;2022-08-30T00:43:27;17.90;99.90
52167;DHT22;38149;52.666;6.428;2022-08-30T00:48:24;18.10;99.90
52167;DHT22;38149;52.666;6.428;2022-08-30T03:32:05;17.10;99.90
52167;DHT22;38149;52.666;6.428;2022-08-30T03:56:44;16.80;99.90
52167;DHT22;38149;52.666;6.428;2022-08-30T04:06:33;17.50;99.90
52167;DHT22;38149;52.666;6.428;2022-08-30T04:11:26;17.40;99.90
52167;DHT22;38149;52.666;6.428;2022-08-30T04:13:52;16.90;99.90
52167;DHT22;38149;52.666;6.428;2022-08-30T04:23:42;16.90;99.90
52167;DHT22;38149;52.666;6.428;2022-08-30T04:28:36;16.70;99.90
52167;DHT22;38149;52.666;6.428;2022-08-30T04:31:10;16.90;99.90
52167;DHT22;38149;52.666;6.428;2022-08-30T04:33:38;16.60;99.90
52167;DHT22;38149;52.666;6.428;2022-08-30T04:36:05;16.90;99.90
52167;DHT22;38149;52.666;6.428;2022-08-30T04:38:34;16.50;99.90
52167;DHT22;38149;52.666;6.428;2022-08-30T04:41:01;16.50;99.90
52167;DHT22;38149;52.666;6.428;2022-08-30T04:43:28;17.10;99.90
52167;DHT22;38149;52.666;6.428;2022-08-30T04:45:54;16.70;99.90
52167;DHT22;38149;52.666;6.428;2022-08-30T04:48:21;16.60;99.90
52167;DHT22;38149;52.666;6.428;2022-08-30T04:50:49;16.70;99.90
52167;DHT22;38149;52.666;6.428;2022-08-30T04:53:15;16.60;99.90
52167;DHT22;38149;52.666;6.428;2022-08-30T04:55:42;16.60;99.90
52167;DHT22;38149;52.666;6.428;2022-08-30T04:58:09;16.70;99.90
52167;DHT22;38149;52.666;6.428;2022-08-30T05:00:36;16.10;99.90
52167;DHT22;38149;52.666;6.428;2022-08-30T05:03:03;15.20;99.90
52167;DHT22;38149;52.666;6.428;2022-08-30T05:05:31;16.60;99.90
52167;DHT22;38149;52.666;6.428;2022-08-30T05:08:14;16.40;99.90
52167;DHT22;38149;52.666;6.428;2022-08-30T05:10:43;16.40;99.90
52167;DHT22;38149;52.666;6.428;2022-08-30T05:13:11;16.20;99.90
52167;DHT22;38149;52.666;6.428;2022-08-30T05:15:39;16.10;99.90
52167;DHT22;38149;52.666;6.428;2022-08-30T05:18:07;16.30;99.90
52167;DHT22;38149;52.666;6.428;2022-08-30T05:20:34;16.40;99.90
52167;DHT22;38149;52.666;6.428;2022-08-30T05:23:01;16.30;99.90
52167;DHT22;38149;52.666;6.428;2022-08-30T05:25:31;16.40;99.90
52167;DHT22;38149;52.666;6.428;2022-08-30T05:27:58;16.60;99.90
52167;DHT22;38149;52.666;6.428;2022-08-30T05:30:26;16.30;99.90
52167;DHT22;38149;52.666;6.428;2022-08-30T05:32:53;16.30;99.90
52167;DHT22;38149;52.666;6.428;2022-08-30T05:35:19;16.40;99.90
52167;DHT22;38149;52.666;6.428;2022-08-30T05:37:45;16.20;99.90
52167;DHT22;38149;52.666;6.428;2022-08-30T05:40:12;16.30;99.90
52167;DHT22;38149;52.666;6.428;2022-08-30T05:42:42;16.20;99.90
52167;DHT22;38149;52.666;6.428;2022-08-30T05:45:10;16.40;99.90
52167;DHT22;38149;52.666;6.428;2022-08-30T05:47:36;16.30;99.90
52167;DHT22;38149;52.666;6.428;2022-08-30T05:50:04;16.30;99.90
52167;DHT22;38149;52.666;6.428;2022-08-30T05:52:39;16.40;99.90
52167;DHT22;38149;52.666;6.428;2022-08-30T05:55:07;16.10;99.90
52167;DHT22;38149;52.666;6.428;2022-08-30T05:57:36;16.60;99.90
52167;DHT22;38149;52.666;6.428;2022-08-30T06:00:07;16.60;99.90
52167;DHT22;38149;52.666;6.428;2022-08-30T06:02:34;16.50;99.90
52167;DHT22;38149;52.666;6.428;2022-08-30T06:05:02;16.70;99.90
52167;DHT22;38149;52.666;6.428;2022-08-30T06:07:28;16.60;99.90
52167;DHT22;38149;52.666;6.428;2022-08-30T06:09:54;16.60;99.90
52167;DHT22;38149;52.666;6.428;2022-08-30T06:12:20;16.70;99.90
52167;DHT22;38149;52.666;6.428;2022-08-30T06:14:46;16.60;99.90
52167;DHT22;38149;52.666;6.428;2022-08-30T06:22:04;16.90;99.90
52167;DHT22;38149;52.666;6.428;2022-08-30T06:24:30;16.90;99.90
52167;DHT22;38149;52.666;6.428;2022-08-30T06:26:56;16.90;99.90
52167;DHT22;38149;52.666;6.428;2022-08-30T06:29:21;17.00;99.90
52167;DHT22;38149;52.666;6.428;2022-08-30T06:31:47;17.10;99.90
52167;DHT22;38149;52.666;6.428;2022-08-30T06:34:14;17.30;99.90
52167;DHT22;38149;52.666;6.428;2022-08-30T06:36:41;17.20;99.90
52167;DHT22;38149;52.666;6.428;2022-08-30T06:39:07;17.40;99.90
52167;DHT22;38149;52.666;6.428;2022-08-30T06:41:36;17.20;99.90
52167;DHT22;38149;52.666;6.428;2022-08-30T06:44:04;17.40;99.90
52167;DHT22;38149;52.666;6.428;2022-08-30T06:46:34;17.40;99.90
52167;DHT22;38149;52.666;6.428;2022-08-30T06:49:03;17.40;99.90
52167;DHT22;38149;52.666;6.428;2022-08-30T06:51:32;17.50;99.90
52167;DHT22;38149;52.666;6.428;2022-08-30T06:56:26;17.70;99.90
52167;DHT22;38149;52.666;6.428;2022-08-30T06:58:52;17.70;99.90
52167;DHT22;38149;52.666;6.428;2022-08-30T07:01:24;17.80;99.90
52167;DHT22;38149;52.666;6.428;2022-08-30T07:03:51;17.90;99.90
52167;DHT22;38149;52.666;6.428;2022-08-30T07:06:17;17.90;99.90
52167;DHT22;38149;52.666;6.428;2022-08-30T07:58:48;19.10;99.90
52167;DHT22;38149;52.666;6.428;2022-08-30T08:01:14;19.30;99.90
52167;DHT22;38149;52.666;6.428;2022-08-30T08:03:42;19.20;99.90
52167;DHT22;38149;52.666;6.428;2022-08-30T08:06:10;19.20;99.90
52167;DHT22;38149;52.666;6.428;2022-08-30T08:08:37;19.20;99.90
52167;DHT22;38149;52.666;6.428;2022-08-30T08:11:19;19.30;99.90
52167;DHT22;38149;52.666;6.428;2022-08-30T08:13:48;19.30;99.90
52167;DHT22;38149;52.666;6.428;2022-08-30T08:18:41;19.40;99.90
52167;DHT22;38149;52.666;6.428;2022-08-30T08:21:06;19.40;99.90
52167;DHT22;38149;52.666;6.428;2022-08-30T08:23:32;19.40;99.90
52167;DHT22;38149;52.666;6.428;2022-08-30T08:25:58;19.30;99.90
52167;DHT22;38149;52.666;6.428;2022-08-30T08:28:24;19.50;99.90
52167;DHT22;38149;52.666;6.428;2022-08-30T08:30:50;19.50;99.90
52167;DHT22;38149;52.666;6.428;2022-08-30T08:33:17;19.50;99.90
52167;DHT22;38149;52.666;6.428;2022-08-30T08:35:43;19.60;99.90
52167;DHT22;38149;52.666;6.428;2022-08-30T08:38:10;19.60;99.90
52167;DHT22;38149;52.666;6.428;2022-08-30T08:43:48;19.60;99.90
52167;DHT22;38149;52.666;6.428;2022-08-30T08:49:04;19.70;99.90
52167;DHT22;38149;52.666;6.428;2022-08-30T08:51:34;19.80;99.90
52167;DHT22;38149;52.666;6.428;2022-08-30T08:54:38;19.80;99.90
52167;DHT22;38149;52.666;6.428;2022-08-30T08:57:09;19.80;99.90
52167;DHT22;38149;52.666;6.428;2022-08-30T08:59:36;19.90;99.90
52167;DHT22;38149;52.666;6.428;2022-08-30T09:02:55;19.90;99.90
52167;DHT22;38149;52.666;6.428;2022-08-30T09:05:18;19.90;99.90
52167;DHT22;38149;52.666;6.428;2022-08-30T09:07:53;20.00;99.90
52167;DHT22;38149;52.666;6.428;2022-08-30T09:10:23;20.10;99.90
52167;DHT22;38149;52.666;6.428;2022-08-30T09:12:50;20.20;99.90
52167;DHT22;38149;52.666;6.428;2022-08-30T09:15:22;20.20;99.90
52167;DHT22;38149;52.666;6.428;2022-08-30T09:20:26;20.30;99.90
52167;DHT22;38149;52.666;6.428;2022-08-30T09:26:01;20.30;99.90
52167;DHT22;38149;52.666;6.428;2022-08-30T09:28:42;20.30;99.90
52167;DHT22;38149;52.666;6.428;2022-08-30T09:31:22;20.40;99.90
52167;DHT22;38149;52.666;6.428;2022-08-30T09:34:08;20.50;99.90
52167;DHT22;38149;52.666;6.428;2022-08-30T09:39:28;20.50;99.90
52167;DHT22;38149;52.666;6.428;2022-08-30T09:42:13;20.50;99.40
52167;DHT22;38149;52.666;6.428;2022-08-30T09:44:44;20.60;99.20
52167;DHT22;38149;52.666;6.428;2022-08-30T09:47:29;20.60;99.70
52167;DHT22;38149;52.666;6.428;2022-08-30T09:52:41;20.70;99.20
52167;DHT22;38149;52.666;6.428;2022-08-30T10:00:51;20.80;98.60
52167;DHT22;38149;52.666;6.428;2022-08-30T10:03:37;20.70;98.70
52167;DHT22;38149;52.666;6.428;2022-08-30T10:06:17;20.80;98.30
52167;DHT22;38149;52.666;6.428;2022-08-30T10:17:42;20.90;97.90
52167;DHT22;38149;52.666;6.428;2022-08-30T10:20:38;21.00;97.60
52167;DHT22;38149;52.666;6.428;2022-08-30T10:23:51;21.00;97.80
52167;DHT22;38149;52.666;6.428;2022-08-30T10:26:30;21.10;97.70
52167;DHT22;38149;52.666;6.428;2022-08-30T10:29:12;21.10;97.80
52167;DHT22;38149;52.666;6.428;2022-08-30T10:31:48;21.10;97.60
52167;DHT22;38149;52.666;6.428;2022-08-30T10:34:35;21.20;97.80
52167;DHT22;38149;52.666;6.428;2022-08-30T10:37:09;21.20;97.50
52167;DHT22;38149;52.666;6.428;2022-08-30T10:39:47;21.20;96.90
52167;DHT22;38149;52.666;6.428;2022-08-30T10:44:50;21.20;97.40
52167;DHT22;38149;52.666;6.428;2022-08-30T10:50:06;21.30;96.80
52167;DHT22;38149;52.666;6.428;2022-08-30T10:52:49;21.40;96.90
52167;DHT22;38149;52.666;6.428;2022-08-30T10:55:23;21.50;96.60
52167;DHT22;38149;52.666;6.428;2022-08-30T10:57:51;21.50;96.90
52167;DHT22;38149;52.666;6.428;2022-08-30T11:00:27;21.50;96.80
52167;DHT22;38149;52.666;6.428;2022-08-30T11:03:30;21.50;96.50
52167;DHT22;38149;52.666;6.428;2022-08-30T11:06:24;21.60;96.00
52167;DHT22;38149;52.666;6.428;2022-08-30T11:14:32;21.80;96.00
52167;DHT22;38149;52.666;6.428;2022-08-30T11:16:59;21.70;95.90
52167;DHT22;38149;52.666;6.428;2022-08-30T11:19:33;21.80;95.80
52167;DHT22;38149;52.666;6.428;2022-08-30T11:22:15;21.80;95.70
52167;DHT22;38149;52.666;6.428;2022-08-30T11:27:52;21.80;94.90
52167;DHT22;38149;52.666;6.428;2022-08-30T11:33:04;21.90;95.30
52167;DHT22;38149;52.666;6.428;2022-08-30T11:35:52;22.00;95.00
52167;DHT22;38149;52.666;6.428;2022-08-30T11:40:50;22.10;95.00
52167;DHT22;38149;52.666;6.428;2022-08-30T12:03:57;22.40;92.60
52167;DHT22;38149;52.666;6.428;2022-08-30T12:07:02;22.50;93.30
52167;DHT22;38149;52.666;6.428;2022-08-30T12:12:06;22.50;93.60
52167;DHT22;38149;52.666;6.428;2022-08-30T12:14:53;22.60;93.40
52167;DHT22;38149;52.666;6.428;2022-08-30T12:20:30;22.70;93.40
52167;DHT22;38149;52.666;6.428;2022-08-30T12:23:28;23.20;94.00
52167;DHT22;38149;52.666;6.428;2022-08-30T12:26:15;22.80;95.20
52167;DHT22;38149;52.666;6.428;2022-08-30T12:28:42;23.00;94.70
52167;DHT22;38149;52.666;6.428;2022-08-30T12:31:55;22.90;93.30
52167;DHT22;38149;52.666;6.428;2022-08-30T12:34:26;23.00;92.40
52167;DHT22;38149;52.666;6.428;2022-08-30T12:39:36;23.40;93.60
52167;DHT22;38149;52.666;6.428;2022-08-30T12:47:12;23.20;92.20
52167;DHT22;38149;52.666;6.428;2022-08-30T12:49:41;23.30;92.30
52167;DHT22;38149;52.666;6.428;2022-08-30T12:55:05;23.40;91.90
52167;DHT22;38149;52.666;6.428;2022-08-30T12:58:03;23.40;91.60
52167;DHT22;38149;52.666;6.428;2022-08-30T13:00:36;23.40;91.60
52167;DHT22;38149;52.666;6.428;2022-08-30T13:05:58;23.50;91.30
52167;DHT22;38149;52.666;6.428;2022-08-30T13:08:37;23.60;91.80
52167;DHT22;38149;52.666;6.428;2022-08-30T13:24:25;23.90;91.00
52167;DHT22;38149;52.666;6.428;2022-08-30T13:26:57;23.90;91.20
52167;DHT22;38149;52.666;6.428;2022-08-30T13:29:26;24.00;91.00
52167;DHT22;38149;52.666;6.428;2022-08-30T13:31:53;24.00;90.30
52167;DHT22;38149;52.666;6.428;2022-08-30T13:34:19;24.10;90.90
52167;DHT22;38149;52.666;6.428;2022-08-30T13:39:21;24.00;89.90
52167;DHT22;38149;52.666;6.428;2022-08-30T13:41:48;24.20;90.60
52167;DHT22;38149;52.666;6.428;2022-08-30T13:44:15;24.20;90.50
52167;DHT22;38149;52.666;6.428;2022-08-30T13:49:30;24.30;90.20
52167;DHT22;38149;52.666;6.428;2022-08-30T13:52:00;24.40;90.40
52167;DHT22;38149;52.666;6.428;2022-08-30T13:54:27;24.40;90.50
52167;DHT22;38149;52.666;6.428;2022-08-30T13:56:54;24.50;90.40
52167;DHT22;38149;52.666;6.428;2022-08-30T13:59:21;24.50;90.30
52167;DHT22;38149;52.666;6.428;2022-08-30T14:01:48;24.60;90.20
52167;DHT22;38149;52.666;6.428;2022-08-30T14:04:15;24.60;90.10
52167;DHT22;38149;52.666;6.428;2022-08-30T14:06:41;24.60;90.20
52167;DHT22;38149;52.666;6.428;2022-08-30T14:09:07;24.70;90.00
52167;DHT22;38149;52.666;6.428;2022-08-30T14:11:35;24.70;89.40
52167;DHT22;38149;52.666;6.428;2022-08-30T14:14:02;24.80;89.60
52167;DHT22;38149;52.666;6.428;2022-08-30T14:18:57;25.00;89.40
52167;DHT22;38149;52.666;6.428;2022-08-30T14:21:23;25.00;90.20
52167;DHT22;38149;52.666;6.428;2022-08-30T14:23:49;25.20;92.40
52167;DHT22;38149;52.666;6.428;2022-08-30T14:26:21;25.00;92.20
52167;DHT22;38149;52.666;6.428;2022-08-30T14:28:48;24.90;90.40
52167;DHT22;38149;52.666;6.428;2022-08-30T14:31:14;25.50;92.50
52167;DHT22;38149;52.666;6.428;2022-08-30T14:33:41;25.40;95.10
52167;DHT22;38149;52.666;6.428;2022-08-30T14:36:08;25.60;95.10
52167;DHT22;38149;52.666;6.428;2022-08-30T14:38:35;25.60;96.50
52167;DHT22;38149;52.666;6.428;2022-08-30T14:41:03;25.80;98.00
52167;DHT22;38149;52.666;6.428;2022-08-30T14:43:29;25.30;95.60
52167;DHT22;38149;52.666;6.428;2022-08-30T14:45:57;24.90;94.80
52167;DHT22;38149;52.666;6.428;2022-08-30T14:48:23;25.60;96.70
52167;DHT22;38149;52.666;6.428;2022-08-30T14:50:49;25.90;95.50
52167;DHT22;38149;52.666;6.428;2022-08-30T14:53:15;25.90;92.90
52167;DHT22;38149;52.666;6.428;2022-08-30T14:55:41;25.30;93.80
52167;DHT22;38149;52.666;6.428;2022-08-30T14:58:07;25.00;92.00
52167;DHT22;38149;52.666;6.428;2022-08-30T15:00:38;25.60;93.00
52167;DHT22;38149;52.666;6.428;2022-08-30T15:03:06;25.80;97.60
52167;DHT22;38149;52.666;6.428;2022-08-30T15:05:35;26.30;99.80
52167;DHT22;38149;52.666;6.428;2022-08-30T15:08:03;26.30;94.00
52167;DHT22;38149;52.666;6.428;2022-08-30T15:10:29;26.00;90.70
52167;DHT22;38149;52.666;6.428;2022-08-30T15:15:23;26.40;92.90
52167;DHT22;38149;52.666;6.428;2022-08-30T15:17:49;26.20;92.70
52167;DHT22;38149;52.666;6.428;2022-08-30T15:20:17;26.30;91.80
52167;DHT22;38149;52.666;6.428;2022-08-30T15:22:43;26.40;91.90
52167;DHT22;38149;52.666;6.428;2022-08-30T15:25:09;26.30;92.80
52167;DHT22;38149;52.666;6.428;2022-08-30T15:27:35;26.60;92.40
52167;DHT22;38149;52.666;6.428;2022-08-30T15:30:02;26.00;93.20
52167;DHT22;38149;52.666;6.428;2022-08-30T15:32:32;26.00;92.40
52167;DHT22;38149;52.666;6.428;2022-08-30T15:37:25;26.00;97.90
52167;DHT22;38149;52.666;6.428;2022-08-30T15:39:51;26.20;91.40
52167;DHT22;38149;52.666;6.428;2022-08-30T15:42:17;26.20;90.60
52167;DHT22;38149;52.666;6.428;2022-08-30T15:44:45;26.20;92.90
52167;DHT22;38149;52.666;6.428;2022-08-30T15:47:14;26.50;91.70
52167;DHT22;38149;52.666;6.428;2022-08-30T15:49:41;26.40;97.30
52167;DHT22;38149;52.666;6.428;2022-08-30T15:52:07;26.50;96.80
52167;DHT22;38149;52.666;6.428;2022-08-30T15:54:32;26.30;94.10
52167;DHT22;38149;52.666;6.428;2022-08-30T15:56:58;26.80;94.20
52167;DHT22;38149;52.666;6.428;2022-08-30T15:59:28;26.40;94.30
52167;DHT22;38149;52.666;6.428;2022-08-30T16:04:23;26.90;98.70
52167;DHT22;38149;52.666;6.428;2022-08-30T16:11:44;25.90;97.10
52167;DHT22;38149;52.666;6.428;2022-08-30T16:14:10;26.00;90.00
52167;DHT22;38149;52.666;6.428;2022-08-30T16:16:36;26.10;86.40
52167;DHT22;38149;52.666;6.428;2022-08-30T16:21:30;26.20;86.00
52167;DHT22;38149;52.666;6.428;2022-08-30T16:24:00;26.20;86.10
52167;DHT22;38149;52.666;6.428;2022-08-30T16:26:28;26.20;86.20
52167;DHT22;38149;52.666;6.428;2022-08-30T16:28:55;26.20;86.10
52167;DHT22;38149;52.666;6.428;2022-08-30T16:31:22;26.30;86.20
52167;DHT22;38149;52.666;6.428;2022-08-30T16:33:48;26.30;86.20
52167;DHT22;38149;52.666;6.428;2022-08-30T16:36:15;26.30;86.10
52167;DHT22;38149;52.666;6.428;2022-08-30T16:38:41;26.30;85.90
52167;DHT22;38149;52.666;6.428;2022-08-30T16:41:09;26.20;85.70
52167;DHT22;38149;52.666;6.428;2022-08-30T16:43:38;26.10;85.80
52167;DHT22;38149;52.666;6.428;2022-08-30T16:46:08;25.90;85.70
52167;DHT22;38149;52.666;6.428;2022-08-30T16:48:36;25.80;90.20
52167;DHT22;38149;52.666;6.428;2022-08-30T16:51:11;25.70;87.00
52167;DHT22;38149;52.666;6.428;2022-08-30T16:53:40;25.60;85.80
52167;DHT22;38149;52.666;6.428;2022-08-30T16:56:10;25.50;86.00
52167;DHT22;38149;52.666;6.428;2022-08-30T16:58:37;25.50;86.20
52167;DHT22;38149;52.666;6.428;2022-08-30T17:01:03;25.40;87.40
52167;DHT22;38149;52.666;6.428;2022-08-30T17:03:30;25.10;85.80
52167;DHT22;38149;52.666;6.428;2022-08-30T17:05:56;25.10;85.90
52167;DHT22;38149;52.666;6.428;2022-08-30T17:08:22;25.00;86.00
52167;DHT22;38149;52.666;6.428;2022-08-30T17:10:48;24.80;86.00
52167;DHT22;38149;52.666;6.428;2022-08-30T17:13:14;24.70;86.50
52167;DHT22;38149;52.666;6.428;2022-08-30T17:15:39;24.70;86.40
52167;DHT22;38149;52.666;6.428;2022-08-30T17:18:05;24.50;86.90
52167;DHT22;38149;52.666;6.428;2022-08-30T17:20:31;24.50;86.60
52167;DHT22;38149;52.666;6.428;2022-08-30T17:22:58;24.40;86.70
52167;DHT22;38149;52.666;6.428;2022-08-30T17:25:25;24.30;87.00
52167;DHT22;38149;52.666;6.428;2022-08-30T17:27:52;24.30;87.20
52167;DHT22;38149;52.666;6.428;2022-08-30T17:30:18;24.20;87.90
52167;DHT22;38149;52.666;6.428;2022-08-30T17:32:44;24.10;87.50
52167;DHT22;38149;52.666;6.428;2022-08-30T17:35:10;24.10;87.60
52167;DHT22;38149;52.666;6.428;2022-08-30T17:37:36;24.10;87.90
52167;DHT22;38149;52.666;6.428;2022-08-30T17:40:03;24.10;88.10
52167;DHT22;38149;52.666;6.428;2022-08-30T17:42:30;24.00;88.70
52167;DHT22;38149;52.666;6.428;2022-08-30T17:44:56;23.90;88.40
52167;DHT22;38149;52.666;6.428;2022-08-30T17:47:24;23.90;88.60
52167;DHT22;38149;52.666;6.428;2022-08-30T17:49:50;23.90;88.90
52167;DHT22;38149;52.666;6.428;2022-08-30T17:52:16;23.80;88.90
52167;DHT22;38149;52.666;6.428;2022-08-30T17:54:42;23.70;89.10
52167;DHT22;38149;52.666;6.428;2022-08-30T17:57:07;23.60;88.90
52167;DHT22;38149;52.666;6.428;2022-08-30T17:59:36;23.60;89.40
52167;DHT22;38149;52.666;6.428;2022-08-30T18:02:02;23.60;89.60
52167;DHT22;38149;52.666;6.428;2022-08-30T18:04:29;23.50;89.80
52167;DHT22;38149;52.666;6.428;2022-08-30T18:06:55;23.40;89.90
52167;DHT22;38149;52.666;6.428;2022-08-30T18:09:22;23.30;90.10
52167;DHT22;38149;52.666;6.428;2022-08-30T18:11:49;23.20;90.10
52167;DHT22;38149;52.666;6.428;2022-08-30T18:14:16;23.20;90.30
52167;DHT22;38149;52.666;6.428;2022-08-30T18:16:42;23.10;90.40
52167;DHT22;38149;52.666;6.428;2022-08-30T18:19:07;23.00;90.50
52167;DHT22;38149;52.666;6.428;2022-08-30T18:21:35;23.00;90.60
52167;DHT22;38149;52.666;6.428;2022-08-30T18:26:28;22.80;90.60
52167;DHT22;38149;52.666;6.428;2022-08-30T18:28:56;22.80;90.90
52167;DHT22;38149;52.666;6.428;2022-08-30T18:31:23;22.80;91.00
52167;DHT22;38149;52.666;6.428;2022-08-30T18:33:49;22.70;91.00
52167;DHT22;38149;52.666;6.428;2022-08-30T18:46:05;22.40;91.80
52167;DHT22;38149;52.666;6.428;2022-08-30T18:48:33;22.30;91.60
52167;DHT22;38149;52.666;6.428;2022-08-30T19:03:13;22.00;92.30
52167;DHT22;38149;52.666;6.428;2022-08-30T19:05:39;22.00;92.10
52167;DHT22;38149;52.666;6.428;2022-08-30T19:10:32;21.80;92.10
52167;DHT22;38149;52.666;6.428;2022-08-30T19:12:59;21.70;92.30
52167;DHT22;38149;52.666;6.428;2022-08-30T19:15:28;21.10;93.80
52167;DHT22;38149;52.666;6.428;2022-08-30T19:17:56;21.70;94.70
52167;DHT22;38149;52.666;6.428;2022-08-30T19:20:25;21.60;94.80
52167;DHT22;38149;52.666;6.428;2022-08-30T19:22:51;20.90;94.60
52167;DHT22;38149;52.666;6.428;2022-08-30T19:25:18;21.50;92.70
52167;DHT22;38149;52.666;6.428;2022-08-30T19:27:45;21.40;92.70
52167;DHT22;38149;52.666;6.428;2022-08-30T19:30:24;21.60;95.40
52167;DHT22;38149;52.666;6.428;2022-08-30T19:40:13;21.20;92.80
52167;DHT22;38149;52.666;6.428;2022-08-30T19:42:41;21.20;92.80
52167;DHT22;38149;52.666;6.428;2022-08-30T19:45:09;21.10;92.80
52167;DHT22;38149;52.666;6.428;2022-08-30T19:47:36;21.10;92.80
52167;DHT22;38149;52.666;6.428;2022-08-30T20:16:54;21.20;99.90
52167;DHT22;38149;52.666;6.428;2022-08-30T20:36:25;20.30;99.90
52167;DHT22;38149;52.666;6.428;2022-08-30T20:38:51;20.10;99.90
52167;DHT22;38149;52.666;6.428;2022-08-30T20:41:17;20.20;99.90
52167;DHT22;38149;52.666;6.428;2022-08-30T20:43:46;20.00;99.90
52167;DHT22;38149;52.666;6.428;2022-08-30T20:46:17;19.80;99.90
52167;DHT22;38149;52.666;6.428;2022-08-30T20:48:45;19.80;99.90
52167;DHT22;38149;52.666;6.428;2022-08-30T20:53:42;19.80;99.90
52167;DHT22;38149;52.666;6.428;2022-08-30T21:13:37;19.50;99.90
52167;DHT22;38149;52.666;6.428;2022-08-30T21:26:08;19.50;99.00
52167;DHT22;38149;52.666;6.428;2022-08-30T21:28:35;19.60;99.40
52167;DHT22;38149;52.666;6.428;2022-08-30T21:33:35;19.30;93.30
52167;DHT22;38149;52.666;6.428;2022-08-30T21:51:05;19.00;92.90
52167;DHT22;38149;52.666;6.428;2022-08-30T21:53:32;19.00;93.00
52167;DHT22;38149;52.666;6.428;2022-08-30T21:55:58;19.00;93.00
52167;DHT22;38149;52.666;6.428;2022-08-30T21:58:24;18.90;93.10
52167;DHT22;38149;52.666;6.428;2022-08-30T22:00:49;18.90;93.10
52167;DHT22;38149;52.666;6.428;2022-08-30T22:03:16;18.80;93.10
52167;DHT22;38149;52.666;6.428;2022-08-30T22:05:41;18.80;93.10
52167;DHT22;38149;52.666;6.428;2022-08-30T22:08:17;18.80;93.10
52167;DHT22;38149;52.666;6.428;2022-08-30T22:10:43;18.80;93.10
52167;DHT22;38149;52.666;6.428;2022-08-30T22:13:09;18.70;93.10
52167;DHT22;38149;52.666;6.428;2022-08-30T22:15:37;18.60;93.10
52167;DHT22;38149;52.666;6.428;2022-08-30T22:18:03;18.60;93.10
52167;DHT22;38149;52.666;6.428;2022-08-30T22:22:55;19.20;93.10
52167;DHT22;38149;52.666;6.428;2022-08-30T22:25:21;18.60;93.10
52167;DHT22;38149;52.666;6.428;2022-08-30T22:27:46;18.50;93.10
52167;DHT22;38149;52.666;6.428;2022-08-30T22:47:17;18.20;93.00
52167;DHT22;38149;52.666;6.428;2022-08-30T22:49:43;18.20;93.10
52167;DHT22;38149;52.666;6.428;2022-08-30T22:52:08;18.20;93.10
52167;DHT22;38149;52.666;6.428;2022-08-30T22:54:34;18.10;93.20
52167;DHT22;38149;52.666;6.428;2022-08-30T22:57:02;18.10;93.20
52167;DHT22;38149;52.666;6.428;2022-08-30T22:59:28;18.00;94.20
52167;DHT22;38149;52.666;6.428;2022-08-30T23:01:54;18.10;99.90
52167;DHT22;38149;52.666;6.428;2022-08-30T23:04:20;18.10;99.90
52167;DHT22;38149;52.666;6.428;2022-08-30T23:06:46;18.20;99.90
52167;DHT22;38149;52.666;6.428;2022-08-30T23:09:12;18.20;99.90
52167;DHT22;38149;52.666;6.428;2022-08-30T23:11:37;18.20;98.10
52167;DHT22;38149;52.666;6.428;2022-08-30T23:14:04;18.20;98.20
52167;DHT22;38149;52.666;6.428;2022-08-30T23:18:58;17.90;99.90
52167;DHT22;38149;52.666;6.428;2022-08-30T23:21:26;17.80;99.90
52167;DHT22;38149;52.666;6.428;2022-08-30T23:23:57;17.90;99.90
52167;DHT22;38149;52.666;6.428;2022-08-30T23:51:27;17.70;99.90
52167;DHT22;38149;52.666;6.428;2022-08-30T23:54:11;17.80;99.90
52167;DHT22;38149;52.666;6.428;2022-08-30T23:56:55;17.70;99.90
